Time;durP1;ratioP1;P1;durP2;ratioP2;P2;SDS_P1;SDS_P2;PMS_P1;PMS_P2;Temp;Humidity;BMP_temperature;BMP_pressure;BME280_temperature;BME280_humidity;BME280_pressure;Samples;Min_cycle;Max_cycle;Signal;HPM_P1;HPM_P2
2022/06/27 00:00:10;;;;;;;9.55;4.22;;;;;;;20.01;nan;95497.81;6256811;22;20043;-84
2022/06/27 00:02:39;;;;;;;13.48;4.75;;;;;;;19.80;nan;95441.25;6257311;22;20019;-84
2022/06/27 00:05:05;;;;;;;5.90;4.07;;;;;;;19.93;nan;95445.63;6259726;22;20012;-84
2022/06/27 00:07:30;;;;;;;10.20;4.00;;;;;;;19.94;nan;95439.13;6257079;22;20033;-84
2022/06/27 00:09:56;;;;;;;18.25;4.22;;;;;;;18.76;nan;95231.25;6257385;22;20411;-84
2022/06/27 00:12:21;;;;;;;8.27;4.38;;;;;;;19.42;nan;95335.56;6257748;22;20018;-84
2022/06/27 00:14:47;;;;;;;8.48;3.63;;;;;;;20.03;nan;95428.31;6262165;22;20127;-84
2022/06/27 00:17:12;;;;;;;10.13;3.50;;;;;;;19.73;nan;95411.38;6261570;22;20015;-84
2022/06/27 00:19:38;;;;;;;6.88;3.80;;;;;;;19.55;nan;95364.94;6260282;22;20011;-84
2022/06/27 00:22:04;;;;;;;6.90;3.72;;;;;;;20.41;nan;95493.66;6261364;22;20077;-84
2022/06/27 00:24:30;;;;;;;6.78;3.92;;;;;;;19.70;nan;95413.94;6259389;22;20494;-84
2022/06/27 00:26:56;;;;;;;4.63;3.70;;;;;;;19.70;nan;95400.47;6259249;22;20007;-84
2022/06/27 00:29:21;;;;;;;8.60;4.13;;;;;;;19.81;nan;95483.22;6259860;22;20014;-84
2022/06/27 00:31:47;;;;;;;12.90;4.18;;;;;;;19.36;nan;95417.56;6259209;22;20031;-84
2022/06/27 00:34:12;;;;;;;6.70;3.90;;;;;;;19.30;nan;95433.06;6261666;22;20030;-84
2022/06/27 00:36:38;;;;;;;4.72;3.58;;;;;;;19.22;nan;95437.34;6258319;22;20008;-83
2022/06/27 00:39:04;;;;;;;12.50;3.97;;;;;;;19.06;nan;95414.03;6260780;22;20114;-83
2022/06/27 00:41:29;;;;;;;6.30;4.00;;;;;;;19.55;nan;95499.47;6260664;22;20502;-84
2022/06/27 00:43:55;;;;;;;4.60;3.70;;;;;;;18.94;nan;95395.06;6258770;22;20420;-84
2022/06/27 00:46:20;;;;;;;9.00;3.85;;;;;;;19.64;nan;95494.03;6261010;22;20514;-84
2022/06/27 00:48:46;;;;;;;9.15;4.03;;;;;;;19.67;nan;95485.34;6260770;22;20108;-84
2022/06/27 00:51:11;;;;;;;10.13;3.45;;;;;;;19.53;nan;95476.69;6258740;22;20094;-84
2022/06/27 00:53:38;;;;;;;8.10;3.75;;;;;;;19.45;nan;95456.75;6258786;22;20015;-83
2022/06/27 00:56:05;;;;;;;9.35;3.85;;;;;;;19.01;nan;95396.16;6258842;22;20008;-84
2022/06/27 00:58:30;;;;;;;6.80;4.20;;;;;;;19.04;nan;95387.47;6259218;22;20012;-84
2022/06/27 01:00:56;;;;;;;8.85;4.07;;;;;;;19.17;nan;95475.19;6259068;22;20004;-84
2022/06/27 01:03:21;;;;;;;5.57;3.67;;;;;;;19.19;nan;95442.59;6258027;22;20471;-84
2022/06/27 01:05:52;;;;;;;8.57;4.00;;;;;;;19.35;nan;95450.94;6260627;22;20008;-84
2022/06/27 01:08:19;;;;;;;9.95;4.57;;;;;;;19.60;nan;95472.41;6260927;22;20011;-84
2022/06/27 01:10:45;;;;;;;7.28;3.85;;;;;;;18.83;nan;95357.03;6259996;22;20074;-84
2022/06/27 01:13:11;;;;;;;7.78;4.07;;;;;;;19.26;nan;95408.72;6258838;22;20035;-84
2022/06/27 01:15:37;;;;;;;11.27;4.30;;;;;;;18.86;nan;95356.38;6258149;22;20089;-84
2022/06/27 01:18:03;;;;;;;5.93;3.80;;;;;;;19.60;nan;95477.78;6259572;22;20491;-84
2022/06/27 01:20:28;;;;;;;9.07;4.55;;;;;;;18.61;nan;95328.50;6260620;22;20019;-84
2022/06/27 01:22:54;;;;;;;12.95;3.83;;;;;;;19.47;nan;95469.91;6260320;22;20081;-84
2022/06/27 01:25:20;;;;;;;10.40;3.90;;;;;;;19.61;nan;95473.16;6260824;22;20021;-84
2022/06/27 01:27:46;;;;;;;8.13;4.10;;;;;;;18.98;nan;95369.16;6257831;22;20011;-84
2022/06/27 01:30:12;;;;;;;8.48;4.13;;;;;;;18.89;nan;95364.59;6260131;22;20012;-84
2022/06/27 01:32:38;;;;;;;9.27;4.43;;;;;;;19.56;nan;95476.03;6260744;22;20417;-83
2022/06/27 01:35:04;;;;;;;11.63;4.38;;;;;;;17.81;nan;95205.78;6260546;22;20015;-84
2022/06/27 01:37:29;;;;;;;9.70;4.18;;;;;;;18.07;nan;95269.03;6256662;22;20409;-84
2022/06/27 01:39:57;;;;;;;6.78;3.42;;;;;;;19.08;nan;95409.88;6257881;22;20057;-84
2022/06/27 01:42:23;;;;;;;8.13;4.03;;;;;;;18.94;nan;95389.69;6257960;22;20023;-84
2022/06/27 01:44:48;;;;;;;9.32;4.70;;;;;;;18.65;nan;95331.31;6260540;22;20111;-84
2022/06/27 01:47:14;;;;;;;8.07;5.22;;;;;;;19.14;nan;95410.53;6258522;22;20012;-83
2022/06/27 01:49:39;;;;;;;12.13;5.63;;;;;;;19.20;nan;95428.06;6257045;22;20041;-83
2022/06/27 01:52:07;;;;;;;9.98;4.88;;;;;;;19.13;nan;95417.00;6255823;22;20027;-83
2022/06/27 01:54:34;;;;;;;11.65;5.93;;;;;;;19.03;nan;95415.44;6259044;22;20298;-83
2022/06/27 01:57:00;;;;;;;9.65;6.03;;;;;;;19.13;nan;95419.69;6258722;22;20008;-83
2022/06/27 01:59:28;;;;;;;9.57;5.35;;;;;;;19.16;nan;95422.53;6258400;22;20102;-83
2022/06/27 02:01:54;;;;;;;14.40;7.32;;;;;;;19.03;nan;95410.06;6258843;22;20146;-83
2022/06/27 02:04:20;;;;;;;15.75;6.82;;;;;;;19.27;nan;95458.72;6256785;22;20114;-83
2022/06/27 02:06:47;;;;;;;14.48;6.72;;;;;;;19.58;nan;95500.72;6257637;22;20014;-83
2022/06/27 02:09:15;;;;;;;10.02;6.05;;;;;;;19.14;nan;95442.78;6256639;22;20022;-83
2022/06/27 02:11:43;;;;;;;9.77;6.72;;;;;;;19.50;nan;95498.84;6257363;22;20018;-84
2022/06/27 02:14:09;;;;;;;17.63;7.22;;;;;;;18.58;nan;95382.06;6258312;22;20408;-83
2022/06/27 02:16:34;;;;;;;14.20;5.90;;;;;;;19.50;nan;95515.00;6258394;22;20106;-83
2022/06/27 02:19:00;;;;;;;12.43;6.15;;;;;;;18.91;nan;95420.72;6256720;22;20022;-83
2022/06/27 02:21:29;;;;;;;11.65;5.65;;;;;;;19.48;nan;95517.19;6258744;22;20021;-83
2022/06/27 02:23:55;;;;;;;9.18;5.80;;;;;;;18.99;nan;95460.22;6258647;22;20015;-83
2022/06/27 02:26:24;;;;;;;10.48;4.85;;;;;;;18.68;nan;95422.81;6256772;22;20020;-83
2022/06/27 02:28:51;;;;;;;13.95;5.72;;;;;;;18.73;nan;95403.03;6256383;22;20383;-83
2022/06/27 02:31:17;;;;;;;15.90;6.18;;;;;;;19.46;nan;95519.38;6258005;22;20245;-83
2022/06/27 02:33:45;;;;;;;11.18;5.80;;;;;;;19.42;nan;95503.13;6255790;22;20004;-84
2022/06/27 02:36:16;;;;;;;10.45;5.30;;;;;;;19.32;nan;95486.53;6256054;22;20094;-83
2022/06/27 02:38:42;;;;;;;7.05;5.40;;;;;;;19.42;nan;95521.94;6256245;22;20031;-83
2022/06/27 02:41:14;;;;;;;11.07;6.15;;;;;;;19.46;nan;95527.47;6256625;22;20027;-83
2022/06/27 02:43:46;;;;;;;9.32;6.05;;;;;;;18.91;nan;95425.28;6258418;22;20035;-83
2022/06/27 02:46:12;;;;;;;16.75;5.60;;;;;;;19.15;nan;95472.00;6256295;22;20012;-83
2022/06/27 02:48:39;;;;;;;10.65;5.72;;;;;;;19.28;nan;95495.25;6255686;22;20037;-83
2022/06/27 02:51:10;;;;;;;13.95;5.95;;;;;;;19.55;nan;95533.63;6256179;22;20053;-84
2022/06/27 02:53:53;;;;;;;11.30;6.38;;;;;;;19.03;nan;95488.03;6255484;22;20044;-83
2022/06/27 02:56:24;;;;;;;13.63;6.30;;;;;;;18.50;nan;95400.50;6258570;22;20038;-83
2022/06/27 02:59:19;;;;;;;11.38;6.28;;;;;;;19.23;nan;95505.38;6257899;22;20007;-84
2022/06/27 03:01:48;;;;;;;14.68;6.78;;;;;;;19.07;nan;95477.44;6258566;22;20034;-83
2022/06/27 03:04:13;;;;;;;14.90;6.15;;;;;;;19.45;nan;95542.03;6257842;22;20443;-84
2022/06/27 03:06:39;;;;;;;18.45;7.00;;;;;;;19.47;nan;95545.22;6257211;22;20018;-83
2022/06/27 03:09:04;;;;;;;14.32;7.05;;;;;;;19.36;nan;95546.66;6258220;22;20421;-83
2022/06/27 03:11:30;;;;;;;10.90;6.55;;;;;;;19.02;nan;95489.13;6259660;22;20344;-83
2022/06/27 03:13:55;;;;;;;24.45;6.80;;;;;;;19.22;nan;95514.56;6257870;22;20027;-83
2022/06/27 03:16:22;;;;;;;10.50;6.03;;;;;;;19.32;nan;95543.00;6258030;22;20035;-83
2022/06/27 03:18:49;;;;;;;11.48;7.10;;;;;;;18.92;nan;95499.44;6257468;22;20273;-83
2022/06/27 03:21:17;;;;;;;15.90;7.32;;;;;;;19.34;nan;95544.28;6257977;22;20007;-83
2022/06/27 03:23:46;;;;;;;10.75;6.72;;;;;;;19.31;nan;95525.28;6257476;22;20008;-83
2022/06/27 03:26:12;;;;;;;11.40;6.38;;;;;;;19.33;nan;95528.44;6257609;22;20042;-83
2022/06/27 03:28:37;;;;;;;18.88;6.80;;;;;;;18.66;nan;95426.91;6258115;22;20050;-83
2022/06/27 03:31:03;;;;;;;9.35;6.50;;;;;;;19.22;nan;95512.63;6256618;22;20544;-83
2022/06/27 03:33:28;;;;;;;14.88;7.20;;;;;;;18.76;nan;95443.50;6257829;22;20080;-83
2022/06/27 03:35:54;;;;;;;10.52;6.68;;;;;;;19.33;nan;95517.69;6256118;22;20298;-83
2022/06/27 03:38:19;;;;;;;8.52;6.07;;;;;;;18.40;nan;95378.56;6255722;22;20043;-83
2022/06/27 03:40:45;;;;;;;12.40;5.93;;;;;;;19.01;nan;95465.25;6256285;22;20085;-84
2022/06/27 03:43:11;;;;;;;11.65;5.50;;;;;;;18.73;nan;95421.84;6258540;22;20031;-83
2022/06/27 03:45:36;;;;;;;8.32;6.05;;;;;;;19.09;nan;95478.69;6258312;22;20011;-83
2022/06/27 03:48:03;;;;;;;12.93;5.80;;;;;;;18.81;nan;95434.47;6261450;22;20456;-83
2022/06/27 03:50:29;;;;;;;10.52;6.20;;;;;;;18.81;nan;95455.97;6259806;22;20021;-83
2022/06/27 03:52:55;;;;;;;17.23;7.65;;;;;;;19.14;nan;95504.63;6285235;22;20090;-83
2022/06/27 03:55:22;;;;;;;14.57;6.72;;;;;;;18.50;nan;95413.94;6259561;22;20037;-83
2022/06/27 03:57:57;;;;;;;10.95;6.45;;;;;;;19.41;nan;95544.56;6261066;22;20525;-83
2022/06/27 04:00:26;;;;;;;12.00;7.50;;;;;;;19.45;nan;95550.91;6259473;22;20019;-83
2022/06/27 04:02:52;;;;;;;17.58;8.40;;;;;;;18.87;nan;95478.88;6262471;22;20044;-83
2022/06/27 04:05:18;;;;;;;16.73;7.68;;;;;;;18.20;nan;95363.91;6260958;22;20007;-83
2022/06/27 04:07:44;;;;;;;13.88;7.68;;;;;;;18.77;nan;95442.38;6264328;22;20014;-84
2022/06/27 04:10:11;;;;;;;16.33;8.85;;;;;;;18.97;nan;95480.44;6260239;22;20011;-83
2022/06/27 04:12:37;;;;;;;12.20;9.10;;;;;;;19.07;nan;95472.06;6259294;22;20377;-83
2022/06/27 04:15:05;;;;;;;21.92;8.80;;;;;;;19.15;nan;95490.03;6256400;22;20144;-83
2022/06/27 04:17:31;;;;;;;20.52;7.93;;;;;;;19.52;nan;95540.47;6257075;22;20049;-83
2022/06/27 04:19:56;;;;;;;17.27;9.18;;;;;;;19.11;nan;95462.22;6262640;22;20061;-84
2022/06/27 04:22:22;;;;;;;18.95;8.70;;;;;;;19.69;nan;95557.63;6264838;22;20008;-83
2022/06/27 04:24:48;;;;;;;17.05;8.68;;;;;;;18.76;nan;95405.88;6262947;22;20119;-83
2022/06/27 04:27:16;;;;;;;18.45;8.90;;;;;;;19.35;nan;95475.94;6257056;22;20018;-83
2022/06/27 04:29:42;;;;;;;14.90;7.82;;;;;;;19.74;nan;95536.75;6261052;22;20004;-83
2022/06/27 04:32:09;;;;;;;14.27;7.35;;;;;;;19.52;nan;95504.72;6283066;22;20020;-83
2022/06/27 04:34:36;;;;;;;20.25;7.85;;;;;;;19.56;nan;95500.25;6257131;22;20114;-84
2022/06/27 04:37:03;;;;;;;16.05;8.40;;;;;;;19.67;nan;95559.88;6261752;22;20492;-83
2022/06/27 04:39:35;;;;;;;17.27;8.45;;;;;;;19.25;nan;95495.88;6260523;22;20060;-84
2022/06/27 04:42:00;;;;;;;17.95;8.68;;;;;;;19.82;nan;95556.66;6259590;22;20039;-83
2022/06/27 04:44:26;;;;;;;33.25;10.68;;;;;;;19.80;nan;95548.91;6257848;22;20095;-83
2022/06/27 04:46:52;;;;;;;12.40;8.23;;;;;;;19.47;nan;95521.78;6256691;22;20393;-83
2022/06/27 04:49:19;;;;;;;18.05;8.38;;;;;;;19.38;nan;95515.59;6255155;22;20017;-83
2022/06/27 04:51:49;;;;;;;17.67;8.85;;;;;;;19.59;nan;95548.03;6257128;22;20011;-83
2022/06/27 04:54:16;;;;;;;14.43;9.25;;;;;;;18.39;nan;95367.03;6256627;22;20008;-83
2022/06/27 04:56:42;;;;;;;18.92;9.00;;;;;;;19.76;nan;95547.97;6258447;22;20255;-83
2022/06/27 04:59:09;;;;;;;21.95;9.95;;;;;;;19.50;nan;95496.16;6254049;22;20008;-83
2022/06/27 05:01:35;;;;;;;14.15;8.93;;;;;;;19.89;nan;95546.97;6254875;22;20358;-83
2022/06/27 05:04:00;;;;;;;18.42;9.10;;;;;;;19.85;nan;95547.94;6256256;22;20180;-83
2022/06/27 05:06:26;;;;;;;17.52;9.02;;;;;;;19.69;nan;95501.94;6255233;22;20008;-82
2022/06/27 05:08:51;;;;;;;23.08;9.52;;;;;;;19.42;nan;95464.66;6255562;22;20008;-83
2022/06/27 05:11:17;;;;;;;20.45;11.02;;;;;;;19.58;nan;95501.50;6252655;22;20096;-84
2022/06/27 05:13:42;;;;;;;25.85;9.93;;;;;;;19.40;nan;95478.44;6257869;22;20011;-83
2022/06/27 05:16:08;;;;;;;31.80;10.32;;;;;;;19.91;nan;95542.03;6254009;22;20054;-83
2022/06/27 05:18:34;;;;;;;30.27;11.05;;;;;;;19.85;nan;95519.13;6256688;22;20011;-83
2022/06/27 05:20:59;;;;;;;20.60;11.23;;;;;;;19.81;nan;95555.88;6255400;22;20003;-84
2022/06/27 05:23:25;;;;;;;24.73;10.77;;;;;;;19.62;nan;95517.78;6257225;22;20311;-85
2022/06/27 05:25:50;;;;;;;18.52;11.15;;;;;;;17.86;nan;95237.78;6256565;22;20007;-84
2022/06/27 05:28:16;;;;;;;22.98;11.73;;;;;;;19.45;nan;95485.56;6254278;22;20059;-84
2022/06/27 05:30:41;;;;;;;19.10;10.68;;;;;;;19.15;nan;95455.09;6256692;22;20014;-85
2022/06/27 05:33:10;;;;;;;17.85;11.70;;;;;;;19.90;nan;95561.22;6254576;22;20019;-84
2022/06/27 05:35:36;;;;;;;22.45;10.77;;;;;;;19.75;nan;95532.94;6248545;22;20015;-84
2022/06/27 05:38:03;;;;;;;29.27;11.35;;;;;;;18.62;nan;95350.75;6255864;22;20111;-84
2022/06/27 05:40:29;;;;;;;24.30;11.35;;;;;;;20.03;nan;95568.28;6230538;22;20019;-84
2022/06/27 05:42:57;;;;;;;19.63;10.20;;;;;;;19.88;nan;95569.63;6254444;22;20020;-84
2022/06/27 05:45:23;;;;;;;33.85;11.43;;;;;;;19.94;nan;95548.69;6253598;22;20011;-85
2022/06/27 05:47:49;;;;;;;20.42;11.00;;;;;;;19.41;nan;95488.09;6280097;22;20469;-84
2022/06/27 05:50:16;;;;;;;19.05;10.23;;;;;;;19.92;nan;95585.91;6257265;22;20078;-84
2022/06/27 05:52:42;;;;;;;18.83;10.88;;;;;;;19.15;nan;95453.19;6253966;22;20104;-84
2022/06/27 05:55:08;;;;;;;19.98;11.10;;;;;;;19.17;nan;95461.75;6255866;22;20111;-85
2022/06/27 05:57:34;;;;;;;27.38;11.27;;;;;;;20.03;nan;95566.38;6255922;22;20375;-85
2022/06/27 06:00:00;;;;;;;16.92;11.38;;;;;;;19.07;nan;95435.19;6281095;22;20023;-85
2022/06/27 06:02:26;;;;;;;23.65;12.13;;;;;;;20.06;nan;95564.97;6251043;22;20011;-85
2022/06/27 06:04:53;;;;;;;28.95;13.60;;;;;;;19.83;nan;95531.34;6251765;22;20409;-85
2022/06/27 06:07:19;;;;;;;28.88;11.95;;;;;;;19.56;nan;95459.91;6256326;22;20008;-86
2022/06/27 06:09:44;;;;;;;17.80;11.60;;;;;;;19.34;nan;95425.94;6249417;22;20110;-85
2022/06/27 06:12:11;;;;;;;23.77;11.77;;;;;;;20.19;nan;95536.22;6252328;22;20080;-85
2022/06/27 06:14:38;;;;;;;23.00;12.02;;;;;;;19.43;nan;95439.34;6276423;22;20019;-84
2022/06/27 06:17:04;;;;;;;21.17;13.52;;;;;;;19.52;nan;95446.31;6254633;22;20098;-84
2022/06/27 06:19:30;;;;;;;27.40;11.95;;;;;;;20.29;nan;95555.47;6252608;22;20426;-85
2022/06/27 06:21:56;;;;;;;20.02;11.13;;;;;;;20.22;nan;95527.47;6225323;22;20050;-84
2022/06/27 06:24:21;;;;;;;21.42;12.82;;;;;;;19.75;nan;95472.97;6253567;22;20073;-84
2022/06/27 06:26:47;;;;;;;31.73;13.27;;;;;;;19.84;nan;95489.84;6253625;22;20034;-85
2022/06/27 06:29:14;;;;;;;23.95;10.80;;;;;;;19.50;nan;95421.63;6253192;22;20032;-85
2022/06/27 06:31:45;;;;;;;29.95;14.18;;;;;;;20.61;nan;95583.69;6254044;22;20083;-85
2022/06/27 06:34:11;;;;;;;;;;;;;;;20.70;nan;95584.41;6257952;22;20726;-85
2022/06/27 06:36:38;;;;;;;23.50;13.77;;;;;;;19.79;nan;95437.00;6255433;22;19915;-85
2022/06/27 06:39:05;;;;;;;24.00;13.38;;;;;;;20.39;nan;95497.78;6254221;22;20028;-85
2022/06/27 06:41:31;;;;;;;21.48;12.35;;;;;;;20.25;nan;95459.50;6255609;22;20078;-84
2022/06/27 06:43:59;;;;;;;19.58;11.85;;;;;;;20.71;nan;95507.84;6252391;22;20012;-84
2022/06/27 06:46:25;;;;;;;23.88;13.20;;;;;;;20.59;nan;95512.41;6253318;22;20018;-85
2022/06/27 06:48:54;;;;;;;24.60;12.18;;;;;;;20.56;nan;95521.91;6253129;22;20007;-85
2022/06/27 06:51:21;;;;;;;17.80;11.02;;;;;;;19.93;nan;95391.00;6249494;22;20008;-85
2022/06/27 06:53:46;;;;;;;17.70;10.82;;;;;;;20.87;nan;95523.41;6250181;22;20478;-85
2022/06/27 06:56:12;;;;;;;19.20;9.93;;;;;;;20.85;nan;95506.78;6253883;22;20011;-86
2022/06/27 06:58:37;;;;;;;18.63;11.00;;;;;;;19.91;nan;95372.47;6252657;22;20059;-85
2022/06/27 07:01:03;;;;;;;24.45;11.90;;;;;;;20.67;nan;95506.16;6252766;22;20096;-85
2022/06/27 07:03:29;;;;;;;26.10;12.82;;;;;;;21.16;nan;95555.66;6253664;22;20011;-84
2022/06/27 07:05:56;;;;;;;21.73;11.95;;;;;;;20.65;nan;95479.53;6251476;22;20011;-83
2022/06/27 07:08:22;;;;;;;20.30;11.65;;;;;;;20.95;nan;95533.34;6252617;22;20561;-84
2022/06/27 07:10:48;;;;;;;23.48;12.45;;;;;;;20.93;nan;95525.56;6253056;22;20010;-83
2022/06/27 07:13:14;;;;;;;25.95;9.95;;;;;;;21.18;nan;95575.03;6254048;22;20034;-85
2022/06/27 07:15:42;;;;;;;18.50;11.25;;;;;;;21.42;nan;95599.44;6258183;22;20038;-85
2022/06/27 07:18:09;;;;;;;21.40;9.57;;;;;;;21.12;nan;95530.50;6252031;22;20011;-85
2022/06/27 07:20:34;;;;;;;14.00;8.13;;;;;;;20.90;nan;95491.22;6251528;22;20810;-85
2022/06/27 07:23:01;;;;;;;17.08;9.52;;;;;;;21.25;nan;95542.13;6253122;22;20015;-83
2022/06/27 07:25:26;;;;;;;18.15;8.55;;;;;;;21.00;nan;95533.91;6253010;22;20226;-84
2022/06/27 07:27:53;;;;;;;15.45;8.00;;;;;;;21.18;nan;95581.22;6253768;22;20410;-85
2022/06/27 07:30:20;;;;;;;20.45;8.55;;;;;;;20.88;nan;95547.34;6254341;22;20185;-84
2022/06/27 07:32:46;;;;;;;15.93;8.68;;;;;;;21.37;nan;95602.31;6252566;22;20011;-84
2022/06/27 07:35:13;;;;;;;14.63;7.85;;;;;;;21.03;nan;95529.78;6249569;22;20442;-83
2022/06/27 07:37:49;;;;;;;14.63;7.80;;;;;;;21.64;nan;95597.47;6253183;22;20197;-84
2022/06/27 07:40:17;;;;;;;10.80;6.30;;;;;;;21.83;nan;95601.22;6250395;22;20086;-84
2022/06/27 07:42:42;;;;;;;10.52;6.13;;;;;;;21.45;nan;95531.28;6250891;22;20019;-84
2022/06/27 07:45:10;;;;;;;16.63;7.13;;;;;;;21.87;nan;95577.84;6248482;22;20011;-83
2022/06/27 07:47:36;;;;;;;12.40;6.80;;;;;;;21.52;nan;95528.84;6249903;22;20015;-84
2022/06/27 07:50:02;;;;;;;18.98;7.72;;;;;;;21.66;nan;95530.44;6255360;22;20190;-84
2022/06/27 07:52:28;;;;;;;11.77;6.00;;;;;;;21.56;nan;95512.78;6253619;22;20471;-85
2022/06/27 07:54:54;;;;;;;13.77;5.90;;;;;;;21.64;nan;95514.59;6250450;22;20085;-84
2022/06/27 07:57:20;;;;;;;9.68;5.90;;;;;;;21.66;nan;95533.16;6248545;22;20526;-85
2022/06/27 07:59:45;;;;;;;11.57;5.95;;;;;;;22.18;nan;95595.44;6251655;22;20012;-84
2022/06/27 08:02:11;;;;;;;12.90;6.00;;;;;;;21.52;nan;95480.25;6251064;22;20118;-85
2022/06/27 08:04:37;;;;;;;7.72;5.55;;;;;;;21.51;nan;95481.38;6252355;22;20428;-85
2022/06/27 08:07:03;;;;;;;8.60;5.45;;;;;;;21.77;nan;95532.38;6252982;22;20011;-84
2022/06/27 08:09:29;;;;;;;9.48;4.68;;;;;;;22.05;nan;95558.75;6251227;22;20586;-84
2022/06/27 08:11:55;;;;;;;7.18;5.07;;;;;;;22.23;nan;95581.72;6253934;22;20022;-87
2022/06/27 08:14:22;;;;;;;12.45;5.05;;;;;;;21.27;nan;95440.91;6254737;22;20214;-85
2022/06/27 08:16:50;;;;;;;9.23;5.00;;;;;;;20.81;nan;95369.19;6254334;22;20003;-85
2022/06/27 08:19:19;;;;;;;;;;;;;;;22.37;nan;95582.16;6252049;22;20030;-85
2022/06/27 08:21:45;;;;;;;8.32;5.22;;;;;;;21.16;nan;95399.25;6252226;22;20332;-85
2022/06/27 08:24:16;;;;;;;8.45;4.80;;;;;;;21.55;nan;95436.44;6255225;22;20042;-85
2022/06/27 08:26:44;;;;;;;8.40;5.25;;;;;;;21.99;nan;95481.78;6252112;22;20297;-85
2022/06/27 08:29:10;;;;;;;10.90;5.85;;;;;;;22.15;nan;95526.69;6251366;22;20477;-85
2022/06/27 08:31:37;;;;;;;20.65;5.85;;;;;;;22.36;nan;95534.66;6253461;22;20012;-85
2022/06/27 08:34:04;;;;;;;7.18;5.35;;;;;;;21.37;nan;95380.31;6279444;22;20003;-84
2022/06/27 08:36:35;;;;;;;23.60;8.35;;;;;;;20.35;nan;95228.31;6273101;22;20012;-85
2022/06/27 08:39:05;;;;;;;13.50;6.40;;;;;;;22.53;nan;95555.25;6260776;22;20471;-86
2022/06/27 08:41:31;;;;;;;13.20;5.68;;;;;;;22.20;nan;95496.72;6259396;22;20030;-85
2022/06/27 08:44:00;;;;;;;9.13;5.22;;;;;;;22.03;nan;95469.97;6257799;22;20043;-85
2022/06/27 08:46:28;;;;;;;10.93;5.70;;;;;;;22.42;nan;95516.31;6249231;22;20136;-85
2022/06/27 08:48:55;;;;;;;12.88;5.40;;;;;;;22.73;nan;95553.53;6251684;22;20184;-85
2022/06/27 08:51:21;;;;;;;8.98;4.88;;;;;;;22.70;nan;95541.47;6255115;22;20052;-84
2022/06/27 08:53:51;;;;;;;9.63;4.47;;;;;;;22.88;nan;95569.88;6253814;22;20004;-84
2022/06/27 08:56:18;;;;;;;18.02;4.75;;;;;;;22.15;nan;95444.84;6250085;22;20087;-84
2022/06/27 08:58:46;;;;;;;9.68;5.50;;;;;;;22.51;nan;95506.91;6251832;22;20035;-85
2022/06/27 09:01:16;;;;;;;9.65;5.60;;;;;;;22.88;nan;95533.91;6254985;22;20008;-85
2022/06/27 09:03:58;;;;;;;8.27;4.63;;;;;;;23.41;nan;95578.69;6252288;22;20099;-84
2022/06/27 09:06:26;;;;;;;11.73;4.95;;;;;;;23.54;nan;95585.66;6251497;22;20011;-84
2022/06/27 09:09:05;;;;;;;9.55;4.85;;;;;;;23.73;nan;95580.34;6253274;22;20378;-84
2022/06/27 09:11:33;;;;;;;12.40;4.95;;;;;;;23.46;nan;95527.00;6250704;22;20687;-84
2022/06/27 09:14:00;;;;;;;14.57;4.68;;;;;;;23.71;nan;95541.22;6251417;22;20477;-86
2022/06/27 09:16:26;;;;;;;9.25;4.55;;;;;;;23.49;nan;95493.09;6251081;22;20016;-84
2022/06/27 09:18:53;;;;;;;6.97;4.15;;;;;;;24.02;nan;95576.47;6253244;22;20007;-85
2022/06/27 09:21:18;;;;;;;9.32;3.97;;;;;;;24.05;nan;95577.66;6251553;22;20047;-86
2022/06/27 09:23:47;;;;;;;7.93;4.40;;;;;;;24.01;nan;95576.81;6251508;22;20408;-85
2022/06/27 09:26:19;;;;;;;9.30;3.80;;;;;;;23.78;nan;95553.03;6250798;22;20015;-85
2022/06/27 09:28:50;;;;;;;11.05;4.78;;;;;;;23.74;nan;95519.63;6256516;22;20106;-84
2022/06/27 09:31:35;;;;;;;;;;;;;;;24.26;nan;95567.38;6259228;22;20076;-84
2022/06/27 09:34:14;;;;;;;10.80;4.28;;;;;;;23.20;nan;95421.94;6258870;22;20151;-86
2022/06/27 09:36:51;;;;;;;5.75;3.85;;;;;;;24.22;nan;95569.22;6251191;22;20062;-87
2022/06/27 09:39:24;;;;;;;8.75;3.80;;;;;;;23.31;nan;95460.13;6254919;22;20399;-85
2022/06/27 09:42:15;;;;;;;5.80;3.70;;;;;;;24.17;nan;95535.03;6254678;22;20008;-85
2022/06/27 09:44:42;;;;;;;;;;;;;;;24.48;nan;95561.34;6252317;22;20019;-84
2022/06/27 09:47:29;;;;;;;8.75;4.57;;;;;;;23.75;nan;95490.66;6253024;22;19907;-82
2022/06/27 09:49:59;;;;;;;11.05;4.47;;;;;;;23.79;nan;95459.03;6255726;22;20061;-83
2022/06/27 09:52:26;;;;;;;10.27;4.83;;;;;;;24.61;nan;95568.22;6255530;22;20019;-83
2022/06/27 09:54:54;;;;;;;7.75;4.72;;;;;;;24.64;nan;95525.25;6257695;22;20111;-84
2022/06/27 09:57:21;;;;;;;9.27;4.90;;;;;;;24.55;nan;95479.38;6253212;22;20019;-84
2022/06/27 09:59:50;;;;;;;10.18;4.22;;;;;;;24.50;nan;95445.16;6253601;22;20062;-84
2022/06/27 10:02:17;;;;;;;6.88;4.13;;;;;;;25.49;nan;95497.91;6258668;22;20014;-84
2022/06/27 10:04:44;;;;;;;6.50;4.05;;;;;;;26.34;nan;95510.22;6258387;22;20015;-84
2022/06/27 10:07:11;;;;;;;10.02;3.67;;;;;;;27.48;nan;95552.56;6256559;22;20098;-84
2022/06/27 10:09:38;;;;;;;8.23;3.50;;;;;;;28.25;nan;95554.50;6251152;22;20394;-84
2022/06/27 10:12:24;;;;;;;6.28;3.20;;;;;;;29.35;nan;95553.28;6256978;22;20007;-83
2022/06/27 10:15:12;;;;;;;8.70;3.83;;;;;;;30.03;nan;95554.25;6257308;22;20096;-84
2022/06/27 10:17:49;;;;;;;11.13;3.50;;;;;;;30.08;nan;95482.75;6259298;22;20564;-85
2022/06/27 10:20:20;;;;;;;5.57;3.17;;;;;;;30.71;nan;95485.81;6255600;22;20016;-83
2022/06/27 10:23:48;;;;;;;6.65;3.10;;;;;;;31.90;nan;95554.22;6259583;22;20564;-84
2022/06/27 10:26:05;;;;;;;10.07;3.85;;;;;;;31.13;nan;95449.31;6254718;22;20011;-83
2022/06/27 10:28:30;;;;;;;9.52;3.10;;;;;;;31.49;nan;95447.13;6249803;22;20034;-84
2022/06/27 10:30:59;;;;;;;5.18;3.28;;;;;;;31.92;nan;95437.44;6243804;22;20007;-83
2022/06/27 10:33:28;;;;;;;8.27;3.30;;;;;;;32.77;nan;95532.78;6250776;22;20059;-83
2022/06/27 10:36:02;;;;;;;6.85;3.17;;;;;;;33.22;nan;95527.19;6252441;22;20443;-84
2022/06/27 10:38:30;;;;;;;10.70;3.80;;;;;;;33.37;nan;95531.31;6256777;22;20015;-84
2022/06/27 10:40:57;;;;;;;5.28;3.30;;;;;;;32.61;nan;95455.63;6259633;22;20458;-84
2022/06/27 10:43:41;;;;;;;9.35;3.20;;;;;;;33.45;nan;95534.75;6252903;22;20377;-83
2022/06/27 10:46:09;;;;;;;3.75;3.10;;;;;;;33.29;nan;95527.09;6251417;22;20073;-83
2022/06/27 10:48:36;;;;;;;4.68;2.80;;;;;;;32.77;nan;95455.88;6254454;22;20039;-84
2022/06/27 10:51:22;;;;;;;8.38;3.22;;;;;;;32.83;nan;95519.38;6256065;22;20343;-84
2022/06/27 10:53:52;;;;;;;5.47;2.85;;;;;;;32.46;nan;95443.25;6253259;22;20008;-83
2022/06/27 10:56:29;;;;;;;6.13;3.38;;;;;;;33.22;nan;95525.22;6253313;22;20024;-84
2022/06/27 10:59:02;;;;;;;6.10;2.92;;;;;;;32.80;nan;95441.34;6254018;22;20007;-84
2022/06/27 11:01:29;;;;;;;3.55;2.40;;;;;;;33.54;nan;95513.81;6252738;22;20106;-84
2022/06/27 11:03:55;;;;;;;4.75;2.88;;;;;;;33.41;nan;95520.28;6258565;22;20065;-83
2022/06/27 11:06:21;;;;;;;6.30;3.30;;;;;;;32.86;nan;95458.13;6261229;22;20012;-83
2022/06/27 11:08:50;;;;;;;5.90;2.67;;;;;;;33.01;nan;95456.78;6257445;22;20014;-83
2022/06/27 11:11:23;;;;;;;6.47;3.13;;;;;;;32.61;nan;95438.38;6252509;22;20019;-83
2022/06/27 11:13:50;;;;;;;6.65;3.17;;;;;;;32.79;nan;95411.53;6249163;22;20034;-83
2022/06/27 11:16:20;;;;;;;9.65;3.55;;;;;;;33.64;nan;95509.38;6252102;22;20285;-83
2022/06/27 11:18:51;;;;;;;7.47;3.25;;;;;;;32.97;nan;95451.31;6250572;22;20484;-85
2022/06/27 11:21:23;;;;;;;;;;;;;;;33.59;nan;95518.06;6254816;22;20405;-83
2022/06/27 11:23:54;;;;;;;5.82;2.40;;;;;;;33.71;nan;95507.31;6254584;22;20401;-84
2022/06/27 11:26:20;;;;;;;;;;;;;;;33.14;nan;95509.97;6250661;22;20133;-84
2022/06/27 11:34:15;;;;;;;8.13;3.00;;;;;;;33.41;nan;95448.81;6258530;22;20579;-84
2022/06/27 11:36:41;;;;;;;5.55;2.70;;;;;;;33.84;nan;95501.25;6253432;22;20035;-84
2022/06/27 11:39:06;;;;;;;14.07;3.22;;;;;;;33.64;nan;95443.38;6256309;22;20019;-84
2022/06/27 11:41:37;;;;;;;6.30;3.03;;;;;;;33.74;nan;95483.69;6252096;22;20439;-84
2022/06/27 11:44:06;;;;;;;8.93;3.05;;;;;;;34.12;nan;95498.03;6247876;22;20012;-84
2022/06/27 11:46:51;;;;;;;10.48;4.50;;;;;;;34.34;nan;95465.47;6251508;22;20418;-83
2022/06/27 11:49:32;;;;;;;8.93;3.08;;;;;;;33.44;nan;95349.00;6253519;22;20008;-84
2022/06/27 11:52:00;;;;;;;4.25;2.65;;;;;;;33.88;nan;95452.44;6254347;22;20241;-83